Time;durP1;ratioP1;P1;durP2;ratioP2;P2;SDS_P1;SDS_P2;PMS_P1;PMS_P2;Temp;Humidity;BMP_temperature;BMP_pressure;BME280_temperature;BME280_humidity;BME280_pressure;Samples;Min_cycle;Max_cycle;Signal;HPM_P1;HPM_P2
2022/09/28 00:02:09;;;;;;;33.00;15.45;;;8.10;99.90;;;;;;5050857;28;20055;-66
2022/09/28 00:04:34;;;;;;;34.97;15.48;;;8.00;99.90;;;;;;5059387;28;20036;-66
2022/09/28 00:07:00;;;;;;;42.55;15.80;;;8.10;99.90;;;;;;5053631;28;20037;-66
2022/09/28 00:09:26;;;;;;;33.92;15.65;;;8.00;99.90;;;;;;5054319;28;20098;-66
2022/09/28 00:11:52;;;;;;;33.50;15.27;;;8.10;99.90;;;;;;5038804;28;20115;-66
2022/09/28 00:14:19;;;;;;;32.17;15.10;;;8.00;99.90;;;;;;5052842;28;20098;-66
2022/09/28 00:16:45;;;;;;;37.00;16.63;;;8.00;99.90;;;;;;5037094;28;20040;-66
2022/09/28 00:19:12;;;;;;;36.33;17.15;;;8.00;99.90;;;;;;5052815;28;20126;-66
2022/09/28 00:21:40;;;;;;;33.65;16.52;;;7.90;99.90;;;;;;5058476;28;20037;-66
2022/09/28 00:24:12;;;;;;;42.90;18.15;;;7.90;99.90;;;;;;5055515;28;20049;-66
2022/09/28 00:27:00;;;;;;;41.58;17.35;;;8.00;99.90;;;;;;5055351;28;20044;-66
2022/09/28 00:29:28;;;;;;;45.47;17.73;;;8.00;99.90;;;;;;5054666;28;20427;-66
2022/09/28 00:31:59;;;;;;;40.95;17.23;;;8.00;99.90;;;;;;5050520;28;20446;-66
2022/09/28 00:34:26;;;;;;;39.08;17.27;;;7.90;99.90;;;;;;5051934;28;20128;-66
2022/09/28 00:36:52;;;;;;;43.42;17.63;;;7.90;99.90;;;;;;5050721;28;20040;-65
2022/09/28 00:39:18;;;;;;;42.22;18.38;;;7.80;99.90;;;;;;5053277;28;20045;-66
2022/09/28 00:41:44;;;;;;;46.20;18.05;;;7.90;99.90;;;;;;5047220;28;20036;-65
2022/09/28 00:44:25;;;;;;;39.25;16.65;;;7.90;99.90;;;;;;5047928;28;20037;-65
2022/09/28 00:47:13;;;;;;;30.45;15.95;;;7.80;99.90;;;;;;5070304;28;20070;-65
2022/09/28 00:50:04;;;;;;;33.58;16.83;;;7.80;99.90;;;;;;5072983;28;20063;-65
2022/09/28 00:52:41;;;;;;;43.65;17.83;;;7.90;99.90;;;;;;5056092;28;20167;-65
2022/09/28 00:55:17;;;;;;;40.58;17.95;;;7.90;99.90;;;;;;5080413;28;20045;-66
2022/09/28 00:57:51;;;;;;;44.40;17.80;;;7.80;99.90;;;;;;5069204;28;20398;-65
2022/09/28 01:00:17;;;;;;;40.88;18.55;;;7.80;99.90;;;;;;5058473;28;20063;-65
2022/09/28 01:02:44;;;;;;;43.30;18.23;;;7.70;99.90;;;;;;5055432;28;20041;-65
2022/09/28 01:05:11;;;;;;;40.08;17.30;;;7.80;99.90;;;;;;5051327;28;20036;-65
2022/09/28 01:07:37;;;;;;;41.20;17.60;;;7.70;99.90;;;;;;5052150;28;20044;-65
2022/09/28 01:10:06;;;;;;;44.47;18.35;;;7.80;99.90;;;;;;5060761;28;20459;-65
2022/09/28 01:12:31;;;;;;;37.92;17.58;;;7.70;99.90;;;;;;5050461;28;20119;-65
2022/09/28 01:14:59;;;;;;;42.05;18.13;;;7.60;99.90;;;;;;5060073;28;20125;-65
2022/09/28 01:17:38;;;;;;;44.78;18.20;;;7.60;99.90;;;;;;5064425;28;20542;-65
2022/09/28 01:20:48;;;;;;;32.25;16.10;;;7.70;99.90;;;;;;5057434;28;20037;-66
2022/09/28 01:23:30;;;;;;;34.38;16.83;;;7.70;99.90;;;;;;5045632;28;20045;-65
2022/09/28 01:26:20;;;;;;;35.50;17.50;;;7.60;99.90;;;;;;5056456;28;20045;-65
2022/09/28 01:28:52;;;;;;;34.80;16.73;;;7.70;99.90;;;;;;5071402;28;20041;-65
2022/09/28 01:31:22;;;;;;;36.42;17.13;;;7.70;99.90;;;;;;5053048;28;20411;-65
2022/09/28 01:34:13;;;;;;;37.35;18.05;;;7.60;99.90;;;;;;5047696;28;20095;-65
2022/09/28 01:36:46;;;;;;;35.90;17.70;;;7.60;99.90;;;;;;5056232;28;20057;-65
2022/09/28 01:39:20;;;;;;;26.33;14.00;;;7.60;99.90;;;;;;5067584;28;20041;-65
2022/09/28 01:41:50;;;;;;;24.85;12.45;;;7.60;99.90;;;;;;5058901;28;20049;-65
2022/09/28 01:44:18;;;;;;;19.08;10.55;;;7.60;99.90;;;;;;5060834;28;20043;-65
2022/09/28 01:46:49;;;;;;;16.05;9.07;;;7.60;99.90;;;;;;5063487;28;20040;-65
2022/09/28 01:49:26;;;;;;;35.05;15.30;;;7.60;99.90;;;;;;5056942;28;20549;-65
2022/09/28 01:52:06;;;;;;;27.58;10.15;;;7.50;99.90;;;;;;5049308;28;20036;-65
2022/09/28 01:54:38;;;;;;;16.08;8.02;;;7.60;99.90;;;;;;5071220;28;20068;-66
2022/09/28 01:57:12;;;;;;;29.50;7.93;;;7.60;99.90;;;;;;5054375;28;20049;-65
2022/09/28 01:59:45;;;;;;;15.00;7.95;;;7.40;99.90;;;;;;5056765;28;20048;-65
2022/09/28 02:02:17;;;;;;;20.67;8.77;;;7.40;99.90;;;;;;5067520;28;20037;-65
2022/09/28 02:04:56;;;;;;;23.95;8.00;;;7.60;99.90;;;;;;5045019;28;20064;-65
2022/09/28 02:07:27;;;;;;;17.95;9.55;;;7.30;99.90;;;;;;5060152;28;20041;-65
2022/09/28 02:09:58;;;;;;;27.15;11.57;;;7.40;99.90;;;;;;5050978;28;20088;-65
2022/09/28 02:12:32;;;;;;;36.45;13.35;;;7.40;99.90;;;;;;5051246;28;20079;-65
2022/09/28 02:15:09;;;;;;;49.45;9.10;;;7.40;99.90;;;;;;5052443;28;20047;-64
2022/09/28 02:17:35;;;;;;;29.30;7.75;;;7.40;99.90;;;;;;5061534;28;20047;-64
2022/09/28 02:20:01;;;;;;;25.30;9.27;;;7.30;99.90;;;;;;5049062;28;20032;-65
2022/09/28 02:22:33;;;;;;;17.45;8.73;;;7.20;99.90;;;;;;5055597;28;20475;-65
2022/09/28 02:25:08;;;;;;;16.70;8.85;;;7.30;99.90;;;;;;5052842;28;20570;-64
2022/09/28 02:28:00;;;;;;;27.40;11.38;;;7.30;99.90;;;;;;5048855;28;20495;-64
2022/09/28 02:30:28;;;;;;;33.72;14.40;;;7.20;99.90;;;;;;5048092;28;20048;-65
2022/09/28 02:32:58;;;;;;;268.85;16.60;;;7.30;99.90;;;;;;5055777;28;20035;-65
2022/09/28 02:35:24;;;;;;;42.13;16.15;;;7.30;99.90;;;;;;5056185;28;20025;-65
2022/09/28 02:37:50;;;;;;;64.43;22.50;;;7.30;99.90;;;;;;5054667;28;20927;-65
2022/09/28 02:40:19;;;;;;;63.83;23.40;;;7.30;99.90;;;;;;5068452;28;20039;-65
2022/09/28 02:43:06;;;;;;;61.95;22.35;;;7.40;99.90;;;;;;5049393;28;20550;-65
2022/09/28 02:46:02;;;;;;;66.10;23.50;;;7.40;99.90;;;;;;5056020;28;20032;-65
2022/09/28 02:48:57;;;;;;;68.72;23.23;;;7.40;99.90;;;;;;5053067;28;20498;-65
2022/09/28 02:51:42;;;;;;;64.05;23.55;;;7.60;99.90;;;;;;5044430;28;20052;-65
2022/09/28 02:54:36;;;;;;;73.25;24.30;;;7.60;99.90;;;;;;5057177;28;20513;-65
2022/09/28 02:57:14;;;;;;;77.20;25.45;;;7.50;99.90;;;;;;5042831;28;20049;-65
2022/09/28 02:59:49;;;;;;;78.07;26.48;;;7.60;99.90;;;;;;5054471;28;20399;-65
2022/09/28 03:02:20;;;;;;;76.35;26.05;;;7.60;99.90;;;;;;5058961;28;20033;-64
2022/09/28 03:05:05;;;;;;;88.55;26.20;;;7.60;99.90;;;;;;5057768;28;20086;-65
2022/09/28 03:07:45;;;;;;;84.65;26.30;;;7.70;99.90;;;;;;5055040;28;20036;-65
2022/09/28 03:10:39;;;;;;;95.88;27.80;;;7.70;99.90;;;;;;5055327;28;20043;-65
2022/09/28 03:13:06;;;;;;;109.38;27.98;;;7.70;99.90;;;;;;5050273;28;20044;-65
2022/09/28 03:15:34;;;;;;;102.60;28.08;;;7.70;99.90;;;;;;5038713;28;20032;-65
2022/09/28 03:18:00;;;;;;;95.03;27.45;;;7.70;99.90;;;;;;5048662;28;20128;-65
2022/09/28 03:20:27;;;;;;;98.32;27.63;;;7.80;99.90;;;;;;5052754;28;20119;-65
2022/09/28 03:22:54;;;;;;;89.95;26.50;;;7.80;99.90;;;;;;5058472;28;20028;-65
2022/09/28 03:25:19;;;;;;;101.90;28.33;;;7.80;99.90;;;;;;5057042;28;20597;-65
2022/09/28 03:27:45;;;;;;;106.95;27.70;;;7.80;99.90;;;;;;5058163;28;20064;-65
2022/09/28 03:30:12;;;;;;;113.72;28.60;;;7.70;99.90;;;;;;5057791;28;20101;-65
2022/09/28 03:32:38;;;;;;;97.95;27.15;;;7.70;99.90;;;;;;5052881;28;20044;-65
2022/09/28 03:35:05;;;;;;;89.72;27.88;;;7.80;99.90;;;;;;5055699;28;20037;-65
2022/09/28 03:37:30;;;;;;;95.45;27.95;;;7.80;99.90;;;;;;5056420;28;20044;-65
2022/09/28 03:39:56;;;;;;;109.30;29.58;;;7.70;99.90;;;;;;5056362;28;20376;-65
2022/09/28 03:42:21;;;;;;;121.72;28.50;;;7.80;99.90;;;;;;5050997;28;20123;-65
2022/09/28 03:44:47;;;;;;;104.28;29.05;;;7.80;99.90;;;;;;5036819;28;20043;-65
2022/09/28 03:47:14;;;;;;;111.40;29.58;;;7.70;99.90;;;;;;5052644;28;20123;-65
2022/09/28 03:49:40;;;;;;;101.13;27.77;;;7.70;99.90;;;;;;5054783;28;20052;-65
2022/09/28 03:52:06;;;;;;;72.90;24.98;;;7.80;99.90;;;;;;5059191;28;20054;-65
2022/09/28 03:54:31;;;;;;;61.00;24.33;;;7.80;99.90;;;;;;5055037;28;20817;-65
2022/09/28 03:56:59;;;;;;;61.88;23.23;;;7.80;99.90;;;;;;5049296;28;20123;-65
2022/09/28 03:59:24;;;;;;;55.35;22.05;;;7.90;99.90;;;;;;5049366;28;20076;-65
2022/09/28 04:01:51;;;;;;;58.88;22.02;;;7.90;99.90;;;;;;5050028;28;20490;-65
2022/09/28 04:04:18;;;;;;;59.22;22.55;;;7.80;99.90;;;;;;5063499;28;20131;-65
2022/09/28 04:06:43;;;;;;;55.08;21.05;;;7.80;99.90;;;;;;5042709;28;20046;-65
2022/09/28 04:09:09;;;;;;;79.97;24.85;;;7.70;99.90;;;;;;5052605;28;20174;-65
2022/09/28 04:11:35;;;;;;;67.90;22.85;;;7.80;99.90;;;;;;5048302;28;20040;-65
2022/09/28 04:14:01;;;;;;;84.00;24.30;;;7.80;99.90;;;;;;5055032;28;20045;-65
2022/09/28 04:16:26;;;;;;;78.50;25.58;;;7.80;99.90;;;;;;5058671;28;20040;-65
2022/09/28 04:18:52;;;;;;;88.53;25.02;;;7.80;99.90;;;;;;5070094;28;20045;-65
2022/09/28 04:21:19;;;;;;;157.25;28.60;;;7.80;99.90;;;;;;5065776;28;20546;-65
2022/09/28 04:23:46;;;;;;;113.97;28.23;;;7.80;99.90;;;;;;5046951;28;20036;-65
2022/09/28 04:26:17;;;;;;;125.50;30.60;;;7.90;99.90;;;;;;5057853;28;20071;-65
2022/09/28 04:31:30;;;;;;;285.98;36.33;;;7.90;99.90;;;;;;5050080;28;20052;-65
2022/09/28 04:33:56;;;;;;;453.55;43.08;;;8.00;99.90;;;;;;5050843;28;20053;-65
2022/09/28 04:36:23;;;;;;;304.92;38.22;;;8.00;99.90;;;;;;5055600;28;20115;-65
2022/09/28 04:38:52;;;;;;;382.90;41.55;;;8.00;99.90;;;;;;5049656;28;20036;-65
2022/09/28 04:41:19;;;;;;;179.20;30.85;;;7.90;99.90;;;;;;5052598;28;20063;-66
2022/09/28 04:43:47;;;;;;;456.23;41.90;;;8.00;99.90;;;;;;5064308;28;20043;-65
2022/09/28 04:46:13;;;;;;;350.15;38.13;;;8.00;99.90;;;;;;5058186;28;20115;-65
2022/09/28 04:48:39;;;;;;;381.70;39.47;;;8.00;99.90;;;;;;5045311;28;20128;-65
2022/09/28 04:51:05;;;;;;;372.50;37.70;;;8.10;99.90;;;;;;5048800;28;20040;-64
2022/09/28 04:53:30;;;;;;;324.80;37.63;;;7.90;99.90;;;;;;5046144;28;20075;-65
2022/09/28 04:56:01;;;;;;;332.23;38.15;;;7.90;99.90;;;;;;5024408;28;20036;-64
2022/09/28 04:58:28;;;;;;;286.52;37.20;;;8.00;99.90;;;;;;5049673;28;20709;-65
2022/09/28 05:00:57;;;;;;;430.83;41.50;;;8.00;99.90;;;;;;5047200;28;20381;-65
2022/09/28 05:03:23;;;;;;;299.88;37.08;;;7.90;99.90;;;;;;5054150;28;20033;-65
2022/09/28 05:05:49;;;;;;;299.13;36.85;;;7.90;99.90;;;;;;5052538;28;20487;-65
2022/09/28 05:08:15;;;;;;;279.10;36.88;;;8.00;99.90;;;;;;5049753;28;20080;-65
2022/09/28 05:10:41;;;;;;;418.33;43.25;;;8.00;99.90;;;;;;5037974;28;20127;-65
2022/09/28 05:13:08;;;;;;;377.05;41.22;;;7.90;99.90;;;;;;5027650;28;20175;-65
2022/09/28 05:15:38;;;;;;;549.97;45.40;;;8.00;99.90;;;;;;5048980;28;20041;-65
2022/09/28 05:18:05;;;;;;;538.88;45.83;;;7.90;99.90;;;;;;5049228;28;20395;-65
2022/09/28 05:20:31;;;;;;;487.65;45.15;;;8.00;99.90;;;;;;5047960;28;20036;-65
2022/09/28 05:22:57;;;;;;;435.52;43.20;;;7.90;99.90;;;;;;5050228;28;20106;-66
2022/09/28 05:25:23;;;;;;;410.27;41.83;;;8.00;99.90;;;;;;5048860;28;20459;-65
2022/09/28 05:27:56;;;;;;;393.83;40.60;;;7.90;99.90;;;;;;5051568;28;20646;-65
2022/09/28 05:30:23;;;;;;;383.05;39.47;;;7.90;99.90;;;;;;5048233;28;20036;-66
2022/09/28 05:32:52;;;;;;;347.00;40.10;;;7.80;99.90;;;;;;5056733;28;20136;-65
2022/09/28 05:35:18;;;;;;;403.08;43.60;;;7.90;99.90;;;;;;5050435;28;20036;-65
2022/09/28 05:37:44;;;;;;;484.77;46.13;;;7.80;99.90;;;;;;5044039;28;20056;-65
2022/09/28 05:40:10;;;;;;;306.65;39.13;;;7.80;99.90;;;;;;5049801;28;20037;-65
2022/09/28 05:42:36;;;;;;;337.77;39.53;;;7.90;99.90;;;;;;5058271;28;20040;-65
2022/09/28 05:45:05;;;;;;;334.58;39.55;;;7.80;99.90;;;;;;5035876;28;20047;-65
2022/09/28 05:47:35;;;;;;;195.00;36.55;;;8.00;99.90;;;;;;5075590;28;20033;-65
2022/09/28 05:50:01;;;;;;;197.63;35.13;;;7.90;99.90;;;;;;5053063;28;20102;-65
2022/09/28 05:52:26;;;;;;;228.80;35.60;;;8.00;99.90;;;;;;5052435;28;20044;-65
2022/09/28 05:54:52;;;;;;;121.40;30.75;;;7.90;99.90;;;;;;5049176;28;20480;-65
2022/09/28 05:57:17;;;;;;;248.32;36.72;;;8.00;99.90;;;;;;5049573;28;20048;-65
2022/09/28 05:59:43;;;;;;;232.07;35.55;;;8.00;99.90;;;;;;5055684;28;20132;-65
2022/09/28 06:02:09;;;;;;;171.18;35.78;;;8.00;99.90;;;;;;5058986;28;20029;-65
2022/09/28 06:04:35;;;;;;;291.05;40.83;;;8.10;99.90;;;;;;5043860;28;20045;-65
2022/09/28 06:07:00;;;;;;;214.02;35.72;;;8.20;99.90;;;;;;5048630;28;20048;-65
2022/09/28 06:09:26;;;;;;;239.30;37.15;;;8.20;99.90;;;;;;5034220;28;20033;-65
2022/09/28 06:11:52;;;;;;;189.23;36.28;;;8.20;99.90;;;;;;5042247;28;20090;-65
2022/09/28 06:14:17;;;;;;;199.35;35.47;;;8.20;99.90;;;;;;5038696;28;20415;-65
2022/09/28 06:16:43;;;;;;;197.93;36.33;;;8.20;99.90;;;;;;5050907;28;20044;-65
2022/09/28 06:19:10;;;;;;;177.02;33.92;;;8.20;99.90;;;;;;5051635;28;20068;-65
2022/09/28 06:21:35;;;;;;;132.65;32.55;;;8.40;99.90;;;;;;5051086;28;20491;-65
2022/09/28 06:24:02;;;;;;;152.25;34.22;;;8.20;99.90;;;;;;5051429;28;20047;-65
2022/09/28 06:26:28;;;;;;;135.63;33.33;;;8.30;99.90;;;;;;5053054;28;20453;-65
2022/09/28 06:28:53;;;;;;;159.27;37.10;;;8.40;99.90;;;;;;5054210;28;20124;-65
2022/09/28 06:31:22;;;;;;;143.52;34.53;;;8.40;99.90;;;;;;5056726;28;20044;-65
2022/09/28 06:33:49;;;;;;;139.70;33.92;;;8.40;99.90;;;;;;5057476;28;20085;-65
2022/09/28 06:36:15;;;;;;;126.25;33.35;;;8.40;99.90;;;;;;5061222;28;20064;-65
2022/09/28 06:38:41;;;;;;;129.48;33.65;;;8.60;99.90;;;;;;5061463;28;20498;-65
2022/09/28 06:41:07;;;;;;;129.93;35.17;;;8.60;99.90;;;;;;5059577;28;20072;-65
2022/09/28 06:43:33;;;;;;;132.32;36.83;;;8.50;99.90;;;;;;5059004;28;20403;-66
2022/09/28 06:46:00;;;;;;;119.70;35.75;;;8.70;99.90;;;;;;5041745;28;20025;-65
2022/09/28 06:48:26;;;;;;;136.00;37.50;;;8.60;99.90;;;;;;5063180;28;20037;-65
2022/09/28 06:50:52;;;;;;;140.25;37.72;;;8.60;99.90;;;;;;5048033;28;20056;-66
2022/09/28 06:53:18;;;;;;;129.88;36.80;;;8.70;99.90;;;;;;5038532;28;20032;-65
2022/09/28 06:55:47;;;;;;;106.63;35.10;;;8.90;99.90;;;;;;5055464;28;20399;-65
2022/09/28 06:58:16;;;;;;;107.55;33.42;;;8.90;99.90;;;;;;5059680;28;20045;-65
2022/09/28 07:00:42;;;;;;;104.85;32.25;;;9.00;99.90;;;;;;5059363;28;20033;-65
2022/09/28 07:03:12;;;;;;;100.07;32.70;;;8.90;99.90;;;;;;5050109;28;20090;-65
2022/09/28 07:05:41;;;;;;;94.45;31.17;;;8.90;99.90;;;;;;5052660;28;20033;-65
2022/09/28 07:08:07;;;;;;;87.25;29.45;;;8.90;99.90;;;;;;5052989;28;20465;-65
2022/09/28 07:10:44;;;;;;;84.55;28.30;;;9.00;99.90;;;;;;5052060;28;20126;-65
2022/09/28 07:13:12;;;;;;;87.38;29.23;;;8.90;99.90;;;;;;5048612;28;20048;-65
2022/09/28 07:15:37;;;;;;;75.50;28.30;;;9.10;99.90;;;;;;5053251;28;20044;-65
2022/09/28 07:18:05;;;;;;;75.30;28.17;;;9.10;99.90;;;;;;5041200;28;20068;-65
2022/09/28 07:20:32;;;;;;;67.57;29.00;;;9.10;99.90;;;;;;5051966;28;20086;-65
2022/09/28 07:22:59;;;;;;;70.22;27.13;;;9.20;99.90;;;;;;5051958;28;20131;-65
2022/09/28 07:25:28;;;;;;;67.50;27.42;;;9.20;99.90;;;;;;5051745;28;20471;-65
2022/09/28 07:28:03;;;;;;;69.20;26.73;;;9.30;99.90;;;;;;5034588;28;20037;-65
2022/09/28 07:30:34;;;;;;;60.55;25.10;;;9.40;99.90;;;;;;5050960;28;20037;-65
2022/09/28 07:33:01;;;;;;;56.40;24.13;;;9.40;99.90;;;;;;5054778;28;20051;-66
2022/09/28 07:35:27;;;;;;;56.08;23.40;;;9.30;99.90;;;;;;5063542;28;20072;-66
2022/09/28 07:38:04;;;;;;;57.67;22.88;;;9.30;99.90;;;;;;5050259;28;20072;-66
2022/09/28 07:43:19;;;;;;;49.65;21.90;;;9.50;99.90;;;;;;5049139;28;20079;-66
2022/09/28 07:45:49;;;;;;;49.17;21.50;;;9.40;99.90;;;;;;5044805;28;20488;-66
2022/09/28 07:48:16;;;;;;;45.70;20.52;;;9.60;99.90;;;;;;5047558;28;20048;-66
2022/09/28 07:50:53;;;;;;;50.65;20.30;;;9.60;99.90;;;;;;5050205;28;20071;-67
2022/09/28 07:53:21;;;;;;;50.88;20.42;;;9.60;99.90;;;;;;5046655;28;20052;-67
2022/09/28 07:55:55;;;;;;;38.55;18.45;;;9.70;99.90;;;;;;5040540;28;20048;-67
2022/09/28 07:58:21;;;;;;;42.45;18.98;;;9.90;99.90;;;;;;5047932;28;20048;-68
2022/09/28 08:00:48;;;;;;;38.22;17.25;;;9.90;99.90;;;;;;5033633;28;20128;-68
2022/09/28 08:03:20;;;;;;;41.85;17.50;;;10.10;99.90;;;;;;5058933;28;20511;-68
2022/09/28 08:05:46;;;;;;;38.17;17.75;;;10.10;99.90;;;;;;5047802;28;20124;-68
2022/09/28 08:08:13;;;;;;;33.03;14.65;;;10.10;99.90;;;;;;5049653;28;20041;-68
2022/09/28 08:10:41;;;;;;;28.90;14.75;;;10.10;99.90;;;;;;5049318;28;20048;-68
2022/09/28 08:13:07;;;;;;;25.95;11.98;;;10.10;99.90;;;;;;5047948;28;20123;-68
2022/09/28 08:15:35;;;;;;;19.77;10.57;;;10.00;99.90;;;;;;5032346;28;20140;-68
2022/09/28 08:18:02;;;;;;;22.17;10.50;;;10.00;99.90;;;;;;5047913;28;20557;-68
2022/09/28 08:23:13;;;;;;;23.05;11.43;;;9.90;99.90;;;;;;5054901;28;20060;-69
2022/09/28 08:25:38;;;;;;;18.45;9.00;;;9.90;99.90;;;;;;5058868;28;20475;-69
2022/09/28 08:28:08;;;;;;;20.63;8.77;;;10.00;99.90;;;;;;5059807;28;20041;-69
2022/09/28 08:30:34;;;;;;;24.80;10.18;;;9.90;99.90;;;;;;5047659;28;20048;-69
2022/09/28 08:32:59;;;;;;;20.35;9.52;;;10.10;99.90;;;;;;5051676;28;20049;-69
2022/09/28 08:35:25;;;;;;;27.35;11.10;;;10.00;99.90;;;;;;5052325;28;20043;-68
2022/09/28 08:37:53;;;;;;;19.60;9.98;;;10.20;99.90;;;;;;5031417;28;20160;-68
2022/09/28 08:40:24;;;;;;;17.48;8.50;;;10.30;99.90;;;;;;5057444;28;20371;-69
2022/09/28 08:42:53;;;;;;;18.20;9.43;;;10.40;99.90;;;;;;5048813;28;20091;-68
2022/09/28 08:45:27;;;;;;;19.35;9.82;;;10.40;99.90;;;;;;5045719;28;20033;-68
2022/09/28 08:51:00;;;;;;;18.48;9.40;;;10.50;99.90;;;;;;5037644;28;20083;-68
2022/09/28 08:53:39;;;;;;;15.85;7.38;;;10.60;99.90;;;;;;5059567;28;20376;-68
2022/09/28 08:56:11;;;;;;;12.10;6.70;;;10.60;99.90;;;;;;5048753;28;20041;-68
2022/09/28 08:58:41;;;;;;;12.48;6.70;;;10.60;99.90;;;;;;5048118;28;20147;-68
2022/09/28 09:01:12;;;;;;;11.48;6.20;;;10.60;99.90;;;;;;5045387;28;20100;-68
2022/09/28 09:03:40;;;;;;;11.93;6.38;;;10.70;99.90;;;;;;5033106;28;20091;-68
2022/09/28 09:06:34;;;;;;;13.48;7.07;;;10.70;99.90;;;;;;5065449;28;20523;-68
2022/09/28 09:09:36;;;;;;;15.93;7.72;;;10.80;99.90;;;;;;5051603;28;20041;-68
2022/09/28 09:12:12;;;;;;;15.27;7.43;;;11.00;99.90;;;;;;5056093;28;20410;-68
2022/09/28 09:15:05;;;;;;;14.88;7.47;;;11.10;99.90;;;;;;5061020;28;20041;-68
2022/09/28 09:17:33;;;;;;;;;;;11.30;99.90;;;;;;5075659;28;20047;-68
2022/09/28 09:20:31;;;;;;;15.43;7.25;;;11.50;99.90;;;;;;5055963;28;21236;-68
2022/09/28 09:22:59;;;;;;;14.75;6.93;;;11.50;99.90;;;;;;5051363;28;20484;-68
2022/09/28 09:25:41;;;;;;;9.77;6.07;;;11.80;99.90;;;;;;5069655;28;20045;-67
2022/09/28 09:28:27;;;;;;;11.82;6.50;;;11.80;99.90;;;;;;5038839;28;20043;-68
2022/09/28 09:30:56;;;;;;;10.68;4.53;;;11.90;99.90;;;;;;5065740;28;20041;-68
2022/09/28 09:33:36;;;;;;;10.98;6.00;;;12.00;99.90;;;;;;5048833;28;20108;-68
2022/09/28 09:36:23;;;;;;;12.70;6.20;;;12.00;99.90;;;;;;5053800;28;20052;-68
2022/09/28 09:39:14;;;;;;;10.23;5.13;;;12.10;99.90;;;;;;5060861;28;20051;-67
2022/09/28 09:42:11;;;;;;;9.95;5.35;;;12.10;99.90;;;;;;5052996;28;20123;-66
2022/09/28 09:44:46;;;;;;;8.13;5.20;;;12.10;99.90;;;;;;5071628;28;20044;-67
2022/09/28 09:47:33;;;;;;;9.50;5.28;;;12.10;99.90;;;;;;5076494;28;20040;-67
2022/09/28 09:50:11;;;;;;;7.57;4.50;;;12.10;99.90;;;;;;5064532;28;20103;-67
2022/09/28 09:52:54;;;;;;;7.43;4.30;;;12.00;99.90;;;;;;5046752;28;20535;-68
2022/09/28 09:55:28;;;;;;;5.95;3.63;;;12.00;99.90;;;;;;5049847;28;20048;-66
2022/09/28 09:58:09;;;;;;;8.13;3.58;;;12.10;99.90;;;;;;5050615;28;20083;-66
2022/09/28 10:00:39;;;;;;;7.22;3.75;;;12.00;99.90;;;;;;5060816;28;20045;-67
2022/09/28 10:03:05;;;;;;;7.53;3.30;;;12.00;99.90;;;;;;5053476;28;20044;-68
2022/09/28 10:05:33;;;;;;;7.10;3.70;;;12.10;99.90;;;;;;5061648;28;20391;-67
2022/09/28 10:08:08;;;;;;;8.40;4.28;;;12.00;99.90;;;;;;5048994;28;20049;-67
2022/09/28 10:10:37;;;;;;;6.07;3.78;;;12.10;99.90;;;;;;5047886;28;20487;-67
2022/09/28 10:13:03;;;;;;;10.00;4.70;;;12.20;99.90;;;;;;5050804;28;20136;-68
2022/09/28 10:15:32;;;;;;;9.18;4.70;;;12.30;99.90;;;;;;5050035;28;20052;-67
2022/09/28 10:18:01;;;;;;;6.90;4.00;;;12.40;99.90;;;;;;5048771;28;20507;-68
2022/09/28 10:20:30;;;;;;;7.18;4.00;;;12.50;99.90;;;;;;5052213;28;20039;-67
2022/09/28 10:23:00;;;;;;;7.70;4.07;;;12.50;99.90;;;;;;5050460;28;20033;-68
2022/09/28 10:25:28;;;;;;;6.28;3.75;;;12.50;99.90;;;;;;5051674;28;20036;-67
2022/09/28 10:27:56;;;;;;;5.90;2.80;;;12.60;99.90;;;;;;5065821;28;20041;-68
2022/09/28 10:30:23;;;;;;;5.57;2.65;;;12.60;99.90;;;;;;5049516;28;20475;-67
2022/09/28 10:32:52;;;;;;;6.15;2.65;;;12.70;99.90;;;;;;5049887;28;20123;-67
2022/09/28 10:35:18;;;;;;;3.80;2.40;;;12.70;99.90;;;;;;5050592;28;20040;-67
2022/09/28 10:37:55;;;;;;;5.95;2.42;;;12.90;99.90;;;;;;5034164;28;20037;-68
2022/09/28 10:40:42;;;;;;;5.63;2.47;;;13.10;99.90;;;;;;5047360;28;20040;-68
2022/09/28 10:43:32;;;;;;;4.60;3.00;;;13.30;99.90;;;;;;5047208;28;20045;-68
2022/09/28 10:46:09;;;;;;;6.60;2.60;;;13.50;99.90;;;;;;5052718;28;20041;-67
2022/09/28 10:48:56;;;;;;;5.05;2.65;;;13.60;99.90;;;;;;5074354;28;20051;-67
2022/09/28 10:51:46;;;;;;;6.15;2.75;;;13.70;99.90;;;;;;5069176;28;20491;-68
2022/09/28 10:54:18;;;;;;;4.97;2.50;;;13.90;99.90;;;;;;5057812;28;20120;-66
2022/09/28 10:56:45;;;;;;;3.03;1.85;;;14.00;99.90;;;;;;5050527;28;20505;-67
2022/09/28 10:59:29;;;;;;;3.30;2.10;;;14.20;99.90;;;;;;5057414;28;20411;-67
2022/09/28 11:02:12;;;;;;;4.25;2.13;;;14.10;99.90;;;;;;5053826;28;20032;-67
2022/09/28 11:04:41;;;;;;;3.53;1.95;;;14.00;99.90;;;;;;5054348;28;20132;-67
2022/09/28 11:07:24;;;;;;;4.25;2.20;;;13.90;99.90;;;;;;5051175;28;20279;-67
2022/09/28 11:09:52;;;;;;;6.10;2.47;;;13.70;99.90;;;;;;5058471;28;20467;-67
2022/09/28 11:12:21;;;;;;;4.13;2.00;;;13.60;99.90;;;;;;5053054;28;20438;-67
2022/09/28 11:14:51;;;;;;;4.43;1.95;;;13.50;99.90;;;;;;5052780;28;20076;-67
2022/09/28 11:17:39;;;;;;;3.03;1.50;;;13.30;99.90;;;;;;5054990;28;20041;-66
2022/09/28 11:20:23;;;;;;;3.75;2.10;;;13.10;99.90;;;;;;5057027;28;20033;-67
2022/09/28 11:22:50;;;;;;;3.97;1.55;;;12.90;99.90;;;;;;5048171;28;20051;-67
2022/09/28 11:25:15;;;;;;;4.60;1.70;;;12.90;99.90;;;;;;5050160;28;20052;-67
2022/09/28 11:28:03;;;;;;;5.57;1.50;;;12.80;99.90;;;;;;5050241;28;20036;-68
2022/09/28 11:30:33;;;;;;;4.13;2.00;;;12.80;99.90;;;;;;5048039;28;20428;-67
2022/09/28 11:33:06;;;;;;;3.30;1.60;;;12.80;99.90;;;;;;5046748;28;20040;-67
2022/09/28 11:35:56;;;;;;;4.68;1.75;;;12.80;99.90;;;;;;5048535;28;20141;-66
2022/09/28 11:38:34;;;;;;;3.72;2.03;;;12.80;99.90;;;;;;5047752;28;20041;-66
2022/09/28 11:41:18;;;;;;;4.03;1.88;;;12.90;99.90;;;;;;5048349;28;20049;-66
2022/09/28 11:43:56;;;;;;;3.58;1.73;;;12.90;99.90;;;;;;5047752;28;20149;-67
2022/09/28 11:46:54;;;;;;;3.92;2.00;;;12.90;99.90;;;;;;5054312;28;20099;-67
2022/09/28 11:49:19;;;;;;;5.43;1.67;;;13.00;99.90;;;;;;5050014;28;20045;-67
2022/09/28 11:51:48;;;;;;;3.58;1.77;;;13.00;99.90;;;;;;5047395;28;20052;-67
2022/09/28 11:54:54;;;;;;;3.05;2.10;;;13.10;99.90;;;;;;5032111;28;20053;-67
2022/09/28 11:57:25;;;;;;;7.03;1.90;;;13.20;99.90;;;;;;5041932;28;20429;-67
2022/09/28 11:59:58;;;;;;;5.30;2.03;;;13.30;99.90;;;;;;5048970;28;20095;-67
2022/09/28 12:02:41;;;;;;;5.25;1.40;;;13.40;99.90;;;;;;5059732;28;20037;-67
2022/09/28 12:05:35;;;;;;;3.83;1.45;;;13.50;99.90;;;;;;5065870;28;20040;-66
2022/09/28 12:08:30;;;;;;;3.00;1.50;;;13.60;99.90;;;;;;5044977;28;20057;-66
2022/09/28 12:11:19;;;;;;;5.95;1.38;;;13.70;99.90;;;;;;5031905;28;20348;-67
2022/09/28 12:13:48;;;;;;;3.90;1.17;;;13.80;99.90;;;;;;5040517;28;20124;-67
2022/09/28 12:16:25;;;;;;;2.50;1.20;;;13.80;99.90;;;;;;5045096;28;20047;-67
2022/09/28 12:19:07;;;;;;;5.45;1.00;;;13.80;99.90;;;;;;5028844;28;20041;-66
2022/09/28 12:21:43;;;;;;;1.10;0.70;;;13.80;99.90;;;;;;5031962;28;20104;-65
2022/09/28 12:24:19;;;;;;;2.33;0.60;;;13.60;99.90;;;;;;5046975;28;20080;-65
2022/09/28 12:26:51;;;;;;;1.45;0.77;;;13.50;99.90;;;;;;5046032;28;20120;-66
2022/09/28 12:29:24;;;;;;;2.00;0.80;;;13.20;99.90;;;;;;5047042;28;20067;-64
2022/09/28 12:32:23;;;;;;;2.05;0.47;;;13.00;99.90;;;;;;5047050;28;20044;-65
2022/09/28 12:34:49;;;;;;;4.22;0.70;;;12.60;99.90;;;;;;5033057;28;20124;-64
2022/09/28 12:37:35;;;;;;;2.00;0.40;;;11.90;99.90;;;;;;5046901;28;20128;-64
2022/09/28 12:40:22;;;;;;;8.77;0.95;;;11.50;99.90;;;;;;5062501;28;20055;-65
2022/09/28 12:43:00;;;;;;;9.23;1.10;;;11.10;99.90;;;;;;5071360;28;20040;-66
2022/09/28 12:45:44;;;;;;;6.30;0.98;;;10.90;99.90;;;;;;5054588;28;20029;-66
2022/09/28 12:48:35;;;;;;;2.85;0.45;;;10.90;99.90;;;;;;5059892;28;20383;-67
2022/09/28 12:51:03;;;;;;;3.03;0.70;;;10.70;99.90;;;;;;5061836;28;20561;-66
2022/09/28 12:53:47;;;;;;;0.73;0.40;;;10.60;99.90;;;;;;5072666;28;20033;-67
2022/09/28 12:56:50;;;;;;;2.15;0.40;;;10.60;99.90;;;;;;5051883;28;20067;-67
2022/09/28 12:59:30;;;;;;;1.02;0.40;;;10.60;99.90;;;;;;5029349;28;20446;-67
2022/09/28 13:02:02;;;;;;;3.25;0.55;;;10.40;99.90;;;;;;5051145;28;20051;-67
2022/09/28 13:05:12;;;;;;;1.05;0.60;;;10.60;99.90;;;;;;5050717;28;20152;-66
2022/09/28 13:07:52;;;;;;;0.80;0.50;;;10.60;99.90;;;;;;5061702;28;20041;-67
2022/09/28 13:10:31;;;;;;;2.10;0.60;;;10.80;99.90;;;;;;5050098;28;20047;-67
2022/09/28 13:13:15;;;;;;;3.72;0.90;;;11.00;99.90;;;;;;5068274;28;20407;-67
2022/09/28 13:15:48;;;;;;;1.80;0.75;;;11.20;99.90;;;;;;5051030;28;20188;-67
2022/09/28 13:18:47;;;;;;;2.00;0.70;;;11.30;99.90;;;;;;5048559;28;20259;-68